sensor_id;sensor_type;location;lat;lon;timestamp;temperature;humidity
47825;DHT22;33589;48.242;14.676;2023-06-10T00:01:25;20.10;86.20
47825;DHT22;33589;48.242;14.676;2023-06-10T00:03:51;20.10;86.20
47825;DHT22;33589;48.242;14.676;2023-06-10T00:06:19;20.10;86.60
47825;DHT22;33589;48.242;14.676;2023-06-10T00:08:47;20.10;85.70
47825;DHT22;33589;48.242;14.676;2023-06-10T00:11:13;20.00;86.00
47825;DHT22;33589;48.242;14.676;2023-06-10T00:13:39;20.00;86.80
47825;DHT22;33589;48.242;14.676;2023-06-10T00:16:05;19.90;86.80
47825;DHT22;33589;48.242;14.676;2023-06-10T00:18:31;19.90;86.80
47825;DHT22;33589;48.242;14.676;2023-06-10T00:20:57;19.90;86.80
47825;DHT22;33589;48.242;14.676;2023-06-10T00:23:28;19.90;87.00
47825;DHT22;33589;48.242;14.676;2023-06-10T00:25:59;19.90;87.00
47825;DHT22;33589;48.242;14.676;2023-06-10T00:28:25;19.90;87.30
47825;DHT22;33589;48.242;14.676;2023-06-10T00:30:51;19.90;87.90
47825;DHT22;33589;48.242;14.676;2023-06-10T00:33:17;19.90;88.00
47825;DHT22;33589;48.242;14.676;2023-06-10T00:35:42;19.90;88.80
47825;DHT22;33589;48.242;14.676;2023-06-10T00:38:08;19.90;88.30
47825;DHT22;33589;48.242;14.676;2023-06-10T00:40:39;19.90;88.40
47825;DHT22;33589;48.242;14.676;2023-06-10T00:43:05;19.90;88.60
47825;DHT22;33589;48.242;14.676;2023-06-10T00:45:31;19.90;88.30
47825;DHT22;33589;48.242;14.676;2023-06-10T00:47:58;20.00;88.80
47825;DHT22;33589;48.242;14.676;2023-06-10T00:50:24;20.00;88.50
47825;DHT22;33589;48.242;14.676;2023-06-10T00:52:51;20.00;88.50
47825;DHT22;33589;48.242;14.676;2023-06-10T00:55:17;19.90;88.60
47825;DHT22;33589;48.242;14.676;2023-06-10T00:57:45;19.90;88.90
47825;DHT22;33589;48.242;14.676;2023-06-10T01:00:12;19.80;89.10
47825;DHT22;33589;48.242;14.676;2023-06-10T01:02:38;19.80;89.90
47825;DHT22;33589;48.242;14.676;2023-06-10T01:05:04;19.80;89.80
47825;DHT22;33589;48.242;14.676;2023-06-10T01:10:36;19.80;90.40
47825;DHT22;33589;48.242;14.676;2023-06-10T01:13:06;19.80;90.00
47825;DHT22;33589;48.242;14.676;2023-06-10T01:15:35;19.90;90.00
47825;DHT22;33589;48.242;14.676;2023-06-10T01:18:07;19.80;89.20
47825;DHT22;33589;48.242;14.676;2023-06-10T01:20:41;19.70;89.50
47825;DHT22;33589;48.242;14.676;2023-06-10T01:23:12;19.80;89.90
47825;DHT22;33589;48.242;14.676;2023-06-10T01:25:41;19.70;90.00
47825;DHT22;33589;48.242;14.676;2023-06-10T01:28:49;19.70;89.60
47825;DHT22;33589;48.242;14.676;2023-06-10T01:31:42;19.80;90.10
47825;DHT22;33589;48.242;14.676;2023-06-10T01:34:10;19.80;90.10
47825;DHT22;33589;48.242;14.676;2023-06-10T01:36:38;19.80;89.40
47825;DHT22;33589;48.242;14.676;2023-06-10T01:39:08;19.60;89.90
47825;DHT22;33589;48.242;14.676;2023-06-10T01:41:34;19.50;90.10
47825;DHT22;33589;48.242;14.676;2023-06-10T01:44:00;19.40;90.60
47825;DHT22;33589;48.242;14.676;2023-06-10T01:46:26;19.40;90.80
47825;DHT22;33589;48.242;14.676;2023-06-10T01:48:52;19.50;90.70
47825;DHT22;33589;48.242;14.676;2023-06-10T01:51:17;19.60;90.70
47825;DHT22;33589;48.242;14.676;2023-06-10T01:53:43;19.60;90.30
47825;DHT22;33589;48.242;14.676;2023-06-10T01:56:09;19.50;90.50
47825;DHT22;33589;48.242;14.676;2023-06-10T01:58:35;19.30;90.30
47825;DHT22;33589;48.242;14.676;2023-06-10T02:01:00;19.20;90.30
47825;DHT22;33589;48.242;14.676;2023-06-10T02:03:26;19.10;90.60
47825;DHT22;33589;48.242;14.676;2023-06-10T02:05:52;19.00;91.50
47825;DHT22;33589;48.242;14.676;2023-06-10T02:08:17;19.10;91.40
47825;DHT22;33589;48.242;14.676;2023-06-10T02:10:43;19.10;91.60
47825;DHT22;33589;48.242;14.676;2023-06-10T02:13:09;19.20;91.50
47825;DHT22;33589;48.242;14.676;2023-06-10T02:15:35;19.20;91.50
47825;DHT22;33589;48.242;14.676;2023-06-10T02:18:00;19.30;91.50
47825;DHT22;33589;48.242;14.676;2023-06-10T02:20:26;19.40;91.40
47825;DHT22;33589;48.242;14.676;2023-06-10T02:22:52;19.40;91.20
47825;DHT22;33589;48.242;14.676;2023-06-10T02:25:18;19.40;91.20
47825;DHT22;33589;48.242;14.676;2023-06-10T02:27:43;19.50;91.30
47825;DHT22;33589;48.242;14.676;2023-06-10T02:30:09;19.50;91.20
47825;DHT22;33589;48.242;14.676;2023-06-10T02:32:36;19.60;91.00
47825;DHT22;33589;48.242;14.676;2023-06-10T02:35:02;19.60;90.90
47825;DHT22;33589;48.242;14.676;2023-06-10T02:37:29;19.60;90.80
47825;DHT22;33589;48.242;14.676;2023-06-10T02:39:56;19.60;90.60
47825;DHT22;33589;48.242;14.676;2023-06-10T02:42:22;19.60;90.60
47825;DHT22;33589;48.242;14.676;2023-06-10T02:44:48;19.60;90.70
47825;DHT22;33589;48.242;14.676;2023-06-10T02:47:20;19.60;91.20
47825;DHT22;33589;48.242;14.676;2023-06-10T02:49:46;19.60;90.80
47825;DHT22;33589;48.242;14.676;2023-06-10T02:52:12;19.60;91.00
47825;DHT22;33589;48.242;14.676;2023-06-10T02:54:37;19.60;90.80
47825;DHT22;33589;48.242;14.676;2023-06-10T02:57:06;19.60;90.90
47825;DHT22;33589;48.242;14.676;2023-06-10T02:59:31;19.50;90.70
47825;DHT22;33589;48.242;14.676;2023-06-10T03:01:57;19.40;91.00
47825;DHT22;33589;48.242;14.676;2023-06-10T03:04:25;19.30;91.00
47825;DHT22;33589;48.242;14.676;2023-06-10T03:06:59;19.30;91.30
47825;DHT22;33589;48.242;14.676;2023-06-10T03:09:31;19.30;91.40
47825;DHT22;33589;48.242;14.676;2023-06-10T03:11:58;19.30;91.40
47825;DHT22;33589;48.242;14.676;2023-06-10T03:14:26;19.30;91.30
47825;DHT22;33589;48.242;14.676;2023-06-10T03:16:52;19.30;91.40
47825;DHT22;33589;48.242;14.676;2023-06-10T03:19:19;19.30;91.60
47825;DHT22;33589;48.242;14.676;2023-06-10T03:21:50;19.30;91.50
47825;DHT22;33589;48.242;14.676;2023-06-10T03:24:20;19.30;91.50
47825;DHT22;33589;48.242;14.676;2023-06-10T03:26:46;19.30;91.70
47825;DHT22;33589;48.242;14.676;2023-06-10T03:29:12;19.30;91.60
47825;DHT22;33589;48.242;14.676;2023-06-10T03:31:37;19.40;91.40
47825;DHT22;33589;48.242;14.676;2023-06-10T03:34:06;19.40;91.30
47825;DHT22;33589;48.242;14.676;2023-06-10T03:36:31;19.40;91.50
47825;DHT22;33589;48.242;14.676;2023-06-10T03:38:57;19.40;91.20
47825;DHT22;33589;48.242;14.676;2023-06-10T03:41:24;19.20;91.40
47825;DHT22;33589;48.242;14.676;2023-06-10T03:43:51;19.20;91.70
47825;DHT22;33589;48.242;14.676;2023-06-10T03:46:16;19.20;92.30
47825;DHT22;33589;48.242;14.676;2023-06-10T03:48:44;19.20;92.00
47825;DHT22;33589;48.242;14.676;2023-06-10T03:51:09;19.20;92.20
47825;DHT22;33589;48.242;14.676;2023-06-10T03:53:35;19.10;92.30
47825;DHT22;33589;48.242;14.676;2023-06-10T03:56:01;19.20;92.40
47825;DHT22;33589;48.242;14.676;2023-06-10T03:58:28;19.10;92.40
47825;DHT22;33589;48.242;14.676;2023-06-10T04:00:54;19.20;92.60
47825;DHT22;33589;48.242;14.676;2023-06-10T04:03:27;19.10;92.40
47825;DHT22;33589;48.242;14.676;2023-06-10T04:05:54;19.20;92.30
47825;DHT22;33589;48.242;14.676;2023-06-10T04:08:19;19.20;92.30
47825;DHT22;33589;48.242;14.676;2023-06-10T04:10:46;19.20;92.30
47825;DHT22;33589;48.242;14.676;2023-06-10T04:13:12;19.20;92.30
47825;DHT22;33589;48.242;14.676;2023-06-10T04:15:45;19.20;92.20
47825;DHT22;33589;48.242;14.676;2023-06-10T04:18:15;19.20;92.30
47825;DHT22;33589;48.242;14.676;2023-06-10T04:20:43;19.20;92.60
47825;DHT22;33589;48.242;14.676;2023-06-10T04:23:10;19.20;92.60
47825;DHT22;33589;48.242;14.676;2023-06-10T04:25:36;19.10;92.70
47825;DHT22;33589;48.242;14.676;2023-06-10T04:28:02;19.10;93.10
47825;DHT22;33589;48.242;14.676;2023-06-10T04:30:28;19.20;93.10
47825;DHT22;33589;48.242;14.676;2023-06-10T04:32:54;19.30;93.20
47825;DHT22;33589;48.242;14.676;2023-06-10T04:35:20;19.20;93.10
47825;DHT22;33589;48.242;14.676;2023-06-10T04:37:47;19.30;93.20
47825;DHT22;33589;48.242;14.676;2023-06-10T04:40:13;19.40;93.30
47825;DHT22;33589;48.242;14.676;2023-06-10T04:42:39;19.40;93.10
47825;DHT22;33589;48.242;14.676;2023-06-10T04:45:06;19.50;93.00
47825;DHT22;33589;48.242;14.676;2023-06-10T04:47:33;19.50;92.90
47825;DHT22;33589;48.242;14.676;2023-06-10T04:50:00;19.50;93.00
47825;DHT22;33589;48.242;14.676;2023-06-10T04:52:25;19.50;93.10
47825;DHT22;33589;48.242;14.676;2023-06-10T04:54:51;19.60;93.00
47825;DHT22;33589;48.242;14.676;2023-06-10T04:57:17;19.60;93.00
47825;DHT22;33589;48.242;14.676;2023-06-10T04:59:42;19.60;93.20
47825;DHT22;33589;48.242;14.676;2023-06-10T05:02:08;19.60;93.20
47825;DHT22;33589;48.242;14.676;2023-06-10T05:04:34;19.60;93.40
47825;DHT22;33589;48.242;14.676;2023-06-10T05:06:59;19.70;93.50
47825;DHT22;33589;48.242;14.676;2023-06-10T05:09:25;19.70;93.60
47825;DHT22;33589;48.242;14.676;2023-06-10T05:11:51;19.70;93.40
47825;DHT22;33589;48.242;14.676;2023-06-10T05:14:19;19.80;93.80
47825;DHT22;33589;48.242;14.676;2023-06-10T05:16:46;19.80;93.50
47825;DHT22;33589;48.242;14.676;2023-06-10T05:19:12;19.90;93.40
47825;DHT22;33589;48.242;14.676;2023-06-10T05:21:38;20.00;93.50
47825;DHT22;33589;48.242;14.676;2023-06-10T05:24:04;20.10;93.40
47825;DHT22;33589;48.242;14.676;2023-06-10T05:26:29;20.10;93.00
47825;DHT22;33589;48.242;14.676;2023-06-10T05:28:57;20.10;93.00
47825;DHT22;33589;48.242;14.676;2023-06-10T05:31:23;20.20;92.90
47825;DHT22;33589;48.242;14.676;2023-06-10T05:33:49;20.20;92.50
47825;DHT22;33589;48.242;14.676;2023-06-10T05:36:14;20.30;92.40
47825;DHT22;33589;48.242;14.676;2023-06-10T05:38:40;20.30;91.70
47825;DHT22;33589;48.242;14.676;2023-06-10T05:41:06;20.40;91.30
47825;DHT22;33589;48.242;14.676;2023-06-10T05:43:32;20.40;91.20
47825;DHT22;33589;48.242;14.676;2023-06-10T05:45:57;20.40;91.00
47825;DHT22;33589;48.242;14.676;2023-06-10T05:48:23;20.40;91.10
47825;DHT22;33589;48.242;14.676;2023-06-10T05:50:49;20.40;91.20
47825;DHT22;33589;48.242;14.676;2023-06-10T05:53:15;20.40;91.20
47825;DHT22;33589;48.242;14.676;2023-06-10T05:55:45;20.40;91.10
47825;DHT22;33589;48.242;14.676;2023-06-10T05:58:12;20.40;91.00
47825;DHT22;33589;48.242;14.676;2023-06-10T06:00:38;20.40;90.70
47825;DHT22;33589;48.242;14.676;2023-06-10T06:03:06;20.30;90.80
47825;DHT22;33589;48.242;14.676;2023-06-10T06:05:33;20.30;90.80
47825;DHT22;33589;48.242;14.676;2023-06-10T06:08:01;20.30;90.70
47825;DHT22;33589;48.242;14.676;2023-06-10T06:10:27;20.30;90.70
47825;DHT22;33589;48.242;14.676;2023-06-10T06:12:53;20.20;90.60
47825;DHT22;33589;48.242;14.676;2023-06-10T06:15:18;20.20;90.90
47825;DHT22;33589;48.242;14.676;2023-06-10T06:17:44;20.10;91.20
47825;DHT22;33589;48.242;14.676;2023-06-10T06:20:10;20.10;91.40
47825;DHT22;33589;48.242;14.676;2023-06-10T06:22:36;20.10;91.20
47825;DHT22;33589;48.242;14.676;2023-06-10T06:25:02;20.10;91.70
47825;DHT22;33589;48.242;14.676;2023-06-10T06:27:28;20.10;92.20
47825;DHT22;33589;48.242;14.676;2023-06-10T06:29:54;20.10;92.20
47825;DHT22;33589;48.242;14.676;2023-06-10T06:32:19;20.10;91.70
47825;DHT22;33589;48.242;14.676;2023-06-10T06:34:46;20.20;91.60
47825;DHT22;33589;48.242;14.676;2023-06-10T06:37:11;20.20;91.30
47825;DHT22;33589;48.242;14.676;2023-06-10T06:39:40;20.20;91.40
47825;DHT22;33589;48.242;14.676;2023-06-10T06:42:06;20.20;91.80
47825;DHT22;33589;48.242;14.676;2023-06-10T06:44:51;20.30;91.90
47825;DHT22;33589;48.242;14.676;2023-06-10T06:47:17;20.20;91.40
47825;DHT22;33589;48.242;14.676;2023-06-10T06:49:48;20.20;91.30
47825;DHT22;33589;48.242;14.676;2023-06-10T06:52:15;20.20;91.60
47825;DHT22;33589;48.242;14.676;2023-06-10T06:54:41;20.20;91.40
47825;DHT22;33589;48.242;14.676;2023-06-10T06:57:07;20.20;91.30
47825;DHT22;33589;48.242;14.676;2023-06-10T06:59:33;20.30;91.40
47825;DHT22;33589;48.242;14.676;2023-06-10T07:01:58;20.20;91.50
47825;DHT22;33589;48.242;14.676;2023-06-10T07:04:24;20.20;91.60
47825;DHT22;33589;48.242;14.676;2023-06-10T07:06:50;20.30;91.60
47825;DHT22;33589;48.242;14.676;2023-06-10T07:09:16;20.30;91.70
47825;DHT22;33589;48.242;14.676;2023-06-10T07:11:41;20.30;91.60
47825;DHT22;33589;48.242;14.676;2023-06-10T07:14:07;20.40;91.20
47825;DHT22;33589;48.242;14.676;2023-06-10T07:16:33;20.40;91.10
47825;DHT22;33589;48.242;14.676;2023-06-10T07:18:58;20.30;91.50
47825;DHT22;33589;48.242;14.676;2023-06-10T07:21:24;20.40;91.30
47825;DHT22;33589;48.242;14.676;2023-06-10T07:23:49;20.50;90.70
47825;DHT22;33589;48.242;14.676;2023-06-10T07:26:19;20.40;90.30
47825;DHT22;33589;48.242;14.676;2023-06-10T07:28:45;20.40;90.10
47825;DHT22;33589;48.242;14.676;2023-06-10T07:31:10;20.50;90.20
47825;DHT22;33589;48.242;14.676;2023-06-10T07:33:37;20.70;90.00
47825;DHT22;33589;48.242;14.676;2023-06-10T07:36:05;20.90;89.40
47825;DHT22;33589;48.242;14.676;2023-06-10T07:38:31;21.10;88.20
47825;DHT22;33589;48.242;14.676;2023-06-10T07:40:57;21.20;87.50
47825;DHT22;33589;48.242;14.676;2023-06-10T07:43:24;21.30;86.40
47825;DHT22;33589;48.242;14.676;2023-06-10T07:45:50;21.30;86.80
47825;DHT22;33589;48.242;14.676;2023-06-10T07:48:15;21.50;88.60
47825;DHT22;33589;48.242;14.676;2023-06-10T07:50:41;21.60;88.80
47825;DHT22;33589;48.242;14.676;2023-06-10T07:53:07;21.60;88.30
47825;DHT22;33589;48.242;14.676;2023-06-10T07:55:32;21.70;89.10
47825;DHT22;33589;48.242;14.676;2023-06-10T07:57:58;22.00;87.00
47825;DHT22;33589;48.242;14.676;2023-06-10T08:00:24;21.70;87.40
47825;DHT22;33589;48.242;14.676;2023-06-10T08:02:50;21.50;87.80
47825;DHT22;33589;48.242;14.676;2023-06-10T08:05:16;21.50;88.30
47825;DHT22;33589;48.242;14.676;2023-06-10T08:07:41;21.50;87.30
47825;DHT22;33589;48.242;14.676;2023-06-10T08:10:08;21.20;88.60
47825;DHT22;33589;48.242;14.676;2023-06-10T08:12:34;21.20;89.40
47825;DHT22;33589;48.242;14.676;2023-06-10T08:15:01;21.30;89.70
47825;DHT22;33589;48.242;14.676;2023-06-10T08:17:27;21.40;89.10
47825;DHT22;33589;48.242;14.676;2023-06-10T08:19:53;21.50;88.80
47825;DHT22;33589;48.242;14.676;2023-06-10T08:22:18;21.70;88.80
47825;DHT22;33589;48.242;14.676;2023-06-10T08:24:44;21.80;88.60
47825;DHT22;33589;48.242;14.676;2023-06-10T08:27:09;22.10;84.50
47825;DHT22;33589;48.242;14.676;2023-06-10T08:29:36;22.00;85.30
47825;DHT22;33589;48.242;14.676;2023-06-10T08:32:02;21.80;85.00
47825;DHT22;33589;48.242;14.676;2023-06-10T08:34:28;21.80;84.00
47825;DHT22;33589;48.242;14.676;2023-06-10T08:36:53;21.70;82.90
47825;DHT22;33589;48.242;14.676;2023-06-10T08:39:21;21.70;84.50
47825;DHT22;33589;48.242;14.676;2023-06-10T08:44:35;22.00;83.50
47825;DHT22;33589;48.242;14.676;2023-06-10T08:47:14;22.10;83.90
47825;DHT22;33589;48.242;14.676;2023-06-10T08:49:47;22.20;82.70
47825;DHT22;33589;48.242;14.676;2023-06-10T08:52:20;22.30;81.70
47825;DHT22;33589;48.242;14.676;2023-06-10T08:54:59;22.50;81.10
47825;DHT22;33589;48.242;14.676;2023-06-10T08:57:26;22.50;79.40
47825;DHT22;33589;48.242;14.676;2023-06-10T08:59:53;22.40;80.40
47825;DHT22;33589;48.242;14.676;2023-06-10T09:02:20;22.40;80.00
47825;DHT22;33589;48.242;14.676;2023-06-10T09:04:47;22.50;80.00
47825;DHT22;33589;48.242;14.676;2023-06-10T09:07:15;22.70;79.50
47825;DHT22;33589;48.242;14.676;2023-06-10T09:09:42;22.70;79.20
47825;DHT22;33589;48.242;14.676;2023-06-10T09:12:09;22.60;78.20
47825;DHT22;33589;48.242;14.676;2023-06-10T09:14:35;22.60;79.00
47825;DHT22;33589;48.242;14.676;2023-06-10T09:17:01;22.70;78.10
47825;DHT22;33589;48.242;14.676;2023-06-10T09:19:27;22.60;78.30
47825;DHT22;33589;48.242;14.676;2023-06-10T09:21:53;22.70;78.60
47825;DHT22;33589;48.242;14.676;2023-06-10T09:24:22;22.80;78.60
47825;DHT22;33589;48.242;14.676;2023-06-10T09:26:48;22.90;77.70
47825;DHT22;33589;48.242;14.676;2023-06-10T09:29:13;23.10;77.30
47825;DHT22;33589;48.242;14.676;2023-06-10T09:31:40;23.20;77.20
47825;DHT22;33589;48.242;14.676;2023-06-10T09:34:11;23.50;75.60
47825;DHT22;33589;48.242;14.676;2023-06-10T09:36:38;23.50;74.60
47825;DHT22;33589;48.242;14.676;2023-06-10T09:39:06;23.80;75.00
47825;DHT22;33589;48.242;14.676;2023-06-10T09:41:42;23.80;75.00
47825;DHT22;33589;48.242;14.676;2023-06-10T09:44:19;24.00;73.70
47825;DHT22;33589;48.242;14.676;2023-06-10T09:46:49;24.10;73.00
47825;DHT22;33589;48.242;14.676;2023-06-10T09:49:20;24.30;71.70
47825;DHT22;33589;48.242;14.676;2023-06-10T09:51:53;24.10;72.90
47825;DHT22;33589;48.242;14.676;2023-06-10T09:54:22;24.10;72.90
47825;DHT22;33589;48.242;14.676;2023-06-10T09:56:49;24.20;72.70
47825;DHT22;33589;48.242;14.676;2023-06-10T09:59:15;24.10;72.70
47825;DHT22;33589;48.242;14.676;2023-06-10T10:01:41;24.10;73.80
47825;DHT22;33589;48.242;14.676;2023-06-10T10:04:07;24.10;75.00
47825;DHT22;33589;48.242;14.676;2023-06-10T10:06:33;24.30;74.70
47825;DHT22;33589;48.242;14.676;2023-06-10T10:08:59;24.50;74.40
47825;DHT22;33589;48.242;14.676;2023-06-10T10:11:25;24.60;72.40
47825;DHT22;33589;48.242;14.676;2023-06-10T10:13:52;24.80;71.90
47825;DHT22;33589;48.242;14.676;2023-06-10T10:16:37;25.00;72.20
47825;DHT22;33589;48.242;14.676;2023-06-10T10:19:18;25.00;71.20
47825;DHT22;33589;48.242;14.676;2023-06-10T10:22:00;25.10;69.50
47825;DHT22;33589;48.242;14.676;2023-06-10T10:24:42;24.80;71.10
47825;DHT22;33589;48.242;14.676;2023-06-10T10:27:18;24.80;72.00
47825;DHT22;33589;48.242;14.676;2023-06-10T10:29:47;24.80;70.60
47825;DHT22;33589;48.242;14.676;2023-06-10T10:32:14;25.00;68.70
47825;DHT22;33589;48.242;14.676;2023-06-10T10:34:51;24.50;70.90
47825;DHT22;33589;48.242;14.676;2023-06-10T10:37:18;24.40;70.30
47825;DHT22;33589;48.242;14.676;2023-06-10T10:39:45;24.50;70.10
47825;DHT22;33589;48.242;14.676;2023-06-10T10:42:11;24.40;70.80
47825;DHT22;33589;48.242;14.676;2023-06-10T10:44:38;24.40;71.00
47825;DHT22;33589;48.242;14.676;2023-06-10T10:47:08;24.40;70.60
47825;DHT22;33589;48.242;14.676;2023-06-10T10:49:37;24.20;71.60
47825;DHT22;33589;48.242;14.676;2023-06-10T10:52:03;24.10;72.40
47825;DHT22;33589;48.242;14.676;2023-06-10T10:54:35;24.20;72.80
47825;DHT22;33589;48.242;14.676;2023-06-10T11:02:36;24.10;72.00
47825;DHT22;33589;48.242;14.676;2023-06-10T11:05:05;23.80;71.70
47825;DHT22;33589;48.242;14.676;2023-06-10T11:07:31;23.50;73.30
47825;DHT22;33589;48.242;14.676;2023-06-10T11:09:59;23.30;75.10
47825;DHT22;33589;48.242;14.676;2023-06-10T11:12:26;23.20;74.80
47825;DHT22;33589;48.242;14.676;2023-06-10T11:14:54;23.20;74.60
47825;DHT22;33589;48.242;14.676;2023-06-10T11:17:20;23.10;74.20
47825;DHT22;33589;48.242;14.676;2023-06-10T11:19:46;23.20;75.60
47825;DHT22;33589;48.242;14.676;2023-06-10T11:22:17;23.40;74.90
47825;DHT22;33589;48.242;14.676;2023-06-10T11:24:52;23.50;74.50
47825;DHT22;33589;48.242;14.676;2023-06-10T11:27:24;23.70;73.60
47825;DHT22;33589;48.242;14.676;2023-06-10T11:32:33;24.20;72.90
47825;DHT22;33589;48.242;14.676;2023-06-10T11:35:00;24.40;71.90
47825;DHT22;33589;48.242;14.676;2023-06-10T11:37:28;24.70;71.60
47825;DHT22;33589;48.242;14.676;2023-06-10T11:39:57;25.00;71.40
47825;DHT22;33589;48.242;14.676;2023-06-10T11:42:24;25.20;71.00
47825;DHT22;33589;48.242;14.676;2023-06-10T11:44:50;25.40;70.90
47825;DHT22;33589;48.242;14.676;2023-06-10T11:47:17;25.60;69.70
47825;DHT22;33589;48.242;14.676;2023-06-10T11:49:43;25.50;69.40
47825;DHT22;33589;48.242;14.676;2023-06-10T11:52:08;25.30;70.20
47825;DHT22;33589;48.242;14.676;2023-06-10T11:54:34;25.20;71.40
47825;DHT22;33589;48.242;14.676;2023-06-10T11:57:00;24.90;71.30
47825;DHT22;33589;48.242;14.676;2023-06-10T11:59:29;24.50;71.60
47825;DHT22;33589;48.242;14.676;2023-06-10T12:01:56;24.20;72.30
47825;DHT22;33589;48.242;14.676;2023-06-10T12:04:22;24.10;73.20
47825;DHT22;33589;48.242;14.676;2023-06-10T12:06:49;24.10;73.10
47825;DHT22;33589;48.242;14.676;2023-06-10T12:11:59;23.90;72.60
47825;DHT22;33589;48.242;14.676;2023-06-10T12:17:15;23.50;72.70
47825;DHT22;33589;48.242;14.676;2023-06-10T12:19:41;23.40;73.40
47825;DHT22;33589;48.242;14.676;2023-06-10T12:22:06;23.20;72.70
47825;DHT22;33589;48.242;14.676;2023-06-10T12:24:32;23.30;73.10
47825;DHT22;33589;48.242;14.676;2023-06-10T12:26:58;23.40;72.90
47825;DHT22;33589;48.242;14.676;2023-06-10T12:29:24;23.50;72.90
47825;DHT22;33589;48.242;14.676;2023-06-10T12:31:58;23.60;72.80
47825;DHT22;33589;48.242;14.676;2023-06-10T12:34:38;23.70;72.40
47825;DHT22;33589;48.242;14.676;2023-06-10T12:37:05;23.70;71.20
47825;DHT22;33589;48.242;14.676;2023-06-10T12:39:32;23.80;71.10
47825;DHT22;33589;48.242;14.676;2023-06-10T12:41:59;23.90;71.20
47825;DHT22;33589;48.242;14.676;2023-06-10T12:44:32;23.90;72.40
47825;DHT22;33589;48.242;14.676;2023-06-10T12:46:58;24.00;70.60
47825;DHT22;33589;48.242;14.676;2023-06-10T12:49:24;24.10;72.90
47825;DHT22;33589;48.242;14.676;2023-06-10T12:51:50;24.20;73.50
47825;DHT22;33589;48.242;14.676;2023-06-10T12:54:16;24.30;71.50
47825;DHT22;33589;48.242;14.676;2023-06-10T12:56:41;24.30;72.10
47825;DHT22;33589;48.242;14.676;2023-06-10T12:59:07;24.40;72.00
47825;DHT22;33589;48.242;14.676;2023-06-10T13:01:32;24.40;72.00
47825;DHT22;33589;48.242;14.676;2023-06-10T13:03:58;24.50;71.10
47825;DHT22;33589;48.242;14.676;2023-06-10T13:06:25;24.50;70.30
47825;DHT22;33589;48.242;14.676;2023-06-10T13:08:51;24.60;71.20
47825;DHT22;33589;48.242;14.676;2023-06-10T13:11:16;24.70;69.90
47825;DHT22;33589;48.242;14.676;2023-06-10T13:13:42;24.80;69.50
47825;DHT22;33589;48.242;14.676;2023-06-10T13:16:08;24.80;69.60
47825;DHT22;33589;48.242;14.676;2023-06-10T13:18:34;24.90;68.90
47825;DHT22;33589;48.242;14.676;2023-06-10T13:21:05;24.80;67.70
47825;DHT22;33589;48.242;14.676;2023-06-10T13:23:31;24.80;66.70
47825;DHT22;33589;48.242;14.676;2023-06-10T13:25:57;24.60;66.80
47825;DHT22;33589;48.242;14.676;2023-06-10T13:28:23;24.50;67.70
47825;DHT22;33589;48.242;14.676;2023-06-10T13:30:49;24.40;67.60
47825;DHT22;33589;48.242;14.676;2023-06-10T13:33:14;24.30;67.50
47825;DHT22;33589;48.242;14.676;2023-06-10T13:35:40;24.20;67.90
47825;DHT22;33589;48.242;14.676;2023-06-10T13:38:06;24.20;67.90
47825;DHT22;33589;48.242;14.676;2023-06-10T13:40:33;24.10;67.70
47825;DHT22;33589;48.242;14.676;2023-06-10T13:42:58;24.00;68.10
47825;DHT22;33589;48.242;14.676;2023-06-10T13:45:24;23.90;68.80
47825;DHT22;33589;48.242;14.676;2023-06-10T13:47:50;23.90;68.90
47825;DHT22;33589;48.242;14.676;2023-06-10T13:50:16;23.90;68.50
47825;DHT22;33589;48.242;14.676;2023-06-10T13:52:42;23.90;68.00
47825;DHT22;33589;48.242;14.676;2023-06-10T13:55:08;23.90;67.90
47825;DHT22;33589;48.242;14.676;2023-06-10T13:57:34;23.80;68.30
47825;DHT22;33589;48.242;14.676;2023-06-10T13:59:59;23.80;68.20
47825;DHT22;33589;48.242;14.676;2023-06-10T14:02:25;23.80;68.80
47825;DHT22;33589;48.242;14.676;2023-06-10T14:04:51;23.80;68.70
47825;DHT22;33589;48.242;14.676;2023-06-10T14:07:16;23.90;69.60
47825;DHT22;33589;48.242;14.676;2023-06-10T14:09:42;24.00;69.00
47825;DHT22;33589;48.242;14.676;2023-06-10T14:12:09;24.10;68.70
47825;DHT22;33589;48.242;14.676;2023-06-10T14:14:34;24.20;69.00
47825;DHT22;33589;48.242;14.676;2023-06-10T14:17:01;24.20;66.40
47825;DHT22;33589;48.242;14.676;2023-06-10T14:19:28;24.20;66.20
47825;DHT22;33589;48.242;14.676;2023-06-10T14:21:54;24.20;65.20
47825;DHT22;33589;48.242;14.676;2023-06-10T14:24:21;24.30;64.70
47825;DHT22;33589;48.242;14.676;2023-06-10T14:26:46;24.40;64.00
47825;DHT22;33589;48.242;14.676;2023-06-10T14:29:13;24.50;63.20
47825;DHT22;33589;48.242;14.676;2023-06-10T14:31:43;24.50;64.00
47825;DHT22;33589;48.242;14.676;2023-06-10T14:34:09;24.50;64.10
47825;DHT22;33589;48.242;14.676;2023-06-10T14:36:34;24.60;63.60
47825;DHT22;33589;48.242;14.676;2023-06-10T14:39:00;24.60;62.40
47825;DHT22;33589;48.242;14.676;2023-06-10T14:41:26;24.60;63.40
47825;DHT22;33589;48.242;14.676;2023-06-10T14:43:52;24.70;63.00
47825;DHT22;33589;48.242;14.676;2023-06-10T14:46:18;24.70;63.40
47825;DHT22;33589;48.242;14.676;2023-06-10T14:48:46;24.80;64.10
47825;DHT22;33589;48.242;14.676;2023-06-10T14:51:11;24.80;63.60
47825;DHT22;33589;48.242;14.676;2023-06-10T14:53:37;24.80;64.00
47825;DHT22;33589;48.242;14.676;2023-06-10T14:56:03;24.90;63.40
47825;DHT22;33589;48.242;14.676;2023-06-10T14:58:28;24.80;63.80
47825;DHT22;33589;48.242;14.676;2023-06-10T15:00:54;24.90;63.70
47825;DHT22;33589;48.242;14.676;2023-06-10T15:03:20;24.90;63.20
47825;DHT22;33589;48.242;14.676;2023-06-10T15:05:45;24.90;63.00
47825;DHT22;33589;48.242;14.676;2023-06-10T15:08:11;24.90;63.10
47825;DHT22;33589;48.242;14.676;2023-06-10T15:10:37;24.80;62.70
47825;DHT22;33589;48.242;14.676;2023-06-10T15:13:03;24.80;62.20
47825;DHT22;33589;48.242;14.676;2023-06-10T15:15:28;24.80;63.40
47825;DHT22;33589;48.242;14.676;2023-06-10T15:17:54;24.70;63.30
47825;DHT22;33589;48.242;14.676;2023-06-10T15:20:20;24.50;62.40
47825;DHT22;33589;48.242;14.676;2023-06-10T15:22:46;24.40;61.70
47825;DHT22;33589;48.242;14.676;2023-06-10T15:25:12;24.10;62.40
47825;DHT22;33589;48.242;14.676;2023-06-10T15:27:37;24.00;63.20
47825;DHT22;33589;48.242;14.676;2023-06-10T15:30:03;23.90;64.50
47825;DHT22;33589;48.242;14.676;2023-06-10T15:32:29;24.00;63.90
47825;DHT22;33589;48.242;14.676;2023-06-10T15:34:55;23.90;63.60